KAWO/AWO METAR and TAF weather

Enter ICAO airport designator
Station Type Date Time Source
KAWO METAR 2018/01/19 22:56 UTC NOAA

KAWO 192256Z AUTO 13015KT 10SM -RA BKN025 OVC033 06/04 A2988 RMK AO2 SLP121 P0005 T00610044


Station Type Date Time Source
KAWO Decoded METAR 2018/01/19 22:56 UTC NOAA

Arlington Municipal, WA, United States (KAWO) 48-10N 122-10W
Jan 19, 2018 - 05:56 PM EST / 2018.01.19 2256 UTC
Wind: from the SE (130 degrees) at 17 MPH (15 KT):0
Visibility: 10 mile(s):0
Sky conditions: overcast
Weather: light rain
Precipitation last hour: 0.05 inches
Temperature: 43.0 F (6.1 C)
Dew Point: 39.9 F (4.4 C)
Relative Humidity: 88%
Pressure (altimeter): 29.88 in. Hg (1011 hPa)
ob: KAWO 192256Z AUTO 13015KT 10SM -RA BKN025 OVC033 06/04 A2988 RMK AO2 SLP121 P0005 T00610044
cycle: 23

Station Type Date Time Source
KAWO TAF UTC NOAA

Error!


Example: see airport list